Binghamton, NY (13903)

1:00 AM EDT on September 15, 2014 (GMT -0400)
MacArthur Park Binghamton NY | Change Station
CLOSE
Current Station
Personal Weather Station
Location: Binghamton, NY
Elevation: 860 ft
Nearby Weather Stations

Elev 860 ft 42.09 °N, 75.92 °W | Updated 9 minutes ago

Mostly Cloudy
Mostly Cloudy
48.6 °F
Feels Like 49 °F
N
0.0
Wind Variable Wind from NE

Today
High -- | Low -- °F
--% Chance of Precip.
Yesterday
High -- | Low -- °F
Precip. -- in
6:43 AM 7:13 PM
Waning Gibbous, 59% visible
Pressure 30.23 in
Visibility 10.0 miles
Clouds Overcast 4400 ft
Windchill 49 °F
Dew Point 35 °F
Humidity 59%
Rainfall 0.00 in
Snow Depth Not available.
UV 0 out of 12
Pollen 3.50 out of 12
PM2.5 Good
Flu Activity Not available.
METAR KBGM 150453Z AUTO 14003KT 10SM OVC044 08/07 A3021 RMK AO2 SLP235 T00830067 401610072 $

More Conditions Fewer Conditions

Pressure 30.23 in
Visibility 10.0 miles
Clouds Overcast 4400 ft
Windchill 49 °F
Dew Point 35 °F
Humidity 59%
Rainfall 0.00 in
Snow Depth Not available.
UV 0 out of 12
Pollen 3.50 out of 12
PM2.5 Good
Flu Activity Not available.
METAR KBGM 150453Z AUTO 14003KT 10SM OVC044 08/07 A3021 RMK AO2 SLP235 T00830067 401610072 $

More Conditions Fewer Conditions

10-Day Weather Forecast

Almanac

Astronomy

Sep. 15, 2014 Rise Set
Actual Time 6:43 AM EDT 7:13 PM EDT
Civil Twilight 6:15 AM EDT 7:41 PM EDT
Nautical Twilight 5:42 AM EDT 8:14 PM EDT
Astronomical Twilight 5:08 AM EDT 8:48 PM EDT
Moon 11:48 PM EDT 1:47 PM EDT
Length of Visible Light 13h 25m
Length of Day
12h 29m
Tomorrow will be 2m 48s shorter.
Waning Gibbous, 59% of the Moon is Illuminated
Today
Waning Gibbous
Sep 15
Last Quarter
Sep 24
New
Oct 1
First Quarter
Oct 8
Full

Today's Extremes

State Highs State Lows

Community

WunderPhotos

Upload Photos

1,753,411 photos uploaded!

Nearby

Air Quality

  Air Quality AQ Index Pollutant
Yesterday Good
OZONE
Yesterday Good
PM2.5
Current Good
PM2.5
Sunday Good
OZONE
Sunday Good
PM2.5
Monday Good
OZONE
Monday Good
PM2.5

Snow Depth

Station Depth Elevation
No new snow has been reported.

Earthquake Activity

City Distance Mag. Time & Date
No recent earthquake activity has been reported nearby.
Minimum magnitude displayed is 2.5.

Coastal Water Temperatures

Place Temperature
No Stations Reporting

Nearby Weather Stations